sensor_id;sensor_type;location;lat;lon;timestamp;P1;durP1;ratioP1;P2;durP2;ratioP2
50249;SDS011;36133;42.522;27.456;2023-04-25T00:02:03;37.33;;;16.75;;
50249;SDS011;36133;42.522;27.456;2023-04-25T00:04:29;42.95;;;17.42;;
50249;SDS011;36133;42.522;27.456;2023-04-25T00:06:55;40.78;;;18.13;;
50249;SDS011;36133;42.522;27.456;2023-04-25T00:09:21;42.30;;;18.25;;
50249;SDS011;36133;42.522;27.456;2023-04-25T00:11:47;40.95;;;17.73;;
50249;SDS011;36133;42.522;27.456;2023-04-25T00:14:13;44.53;;;17.17;;
50249;SDS011;36133;42.522;27.456;2023-04-25T00:16:42;43.42;;;17.80;;
50249;SDS011;36133;42.522;27.456;2023-04-25T00:19:08;45.50;;;16.80;;
50249;SDS011;36133;42.522;27.456;2023-04-25T00:21:34;33.45;;;17.33;;
50249;SDS011;36133;42.522;27.456;2023-04-25T00:24:00;38.58;;;16.98;;
50249;SDS011;36133;42.522;27.456;2023-04-25T00:26:26;34.53;;;16.63;;
50249;SDS011;36133;42.522;27.456;2023-04-25T00:28:52;33.85;;;15.73;;
50249;SDS011;36133;42.522;27.456;2023-04-25T00:31:17;40.33;;;16.23;;
50249;SDS011;36133;42.522;27.456;2023-04-25T00:33:43;37.10;;;15.80;;
50249;SDS011;36133;42.522;27.456;2023-04-25T00:36:08;31.42;;;15.25;;
50249;SDS011;36133;42.522;27.456;2023-04-25T00:38:34;33.90;;;16.60;;
50249;SDS011;36133;42.522;27.456;2023-04-25T00:41:00;46.45;;;16.02;;
50249;SDS011;36133;42.522;27.456;2023-04-25T00:43:26;27.25;;;15.65;;
50249;SDS011;36133;42.522;27.456;2023-04-25T00:45:55;28.85;;;15.40;;
50249;SDS011;36133;42.522;27.456;2023-04-25T00:48:22;33.55;;;15.57;;
50249;SDS011;36133;42.522;27.456;2023-04-25T00:50:51;34.97;;;15.50;;
50249;SDS011;36133;42.522;27.456;2023-04-25T00:53:21;28.13;;;15.95;;
50249;SDS011;36133;42.522;27.456;2023-04-25T00:55:47;36.13;;;15.95;;
50249;SDS011;36133;42.522;27.456;2023-04-25T00:58:16;28.98;;;15.52;;
50249;SDS011;36133;42.522;27.456;2023-04-25T01:00:43;36.17;;;15.82;;
50249;SDS011;36133;42.522;27.456;2023-04-25T01:03:10;27.83;;;17.10;;
50249;SDS011;36133;42.522;27.456;2023-04-25T01:05:36;34.58;;;17.33;;
50249;SDS011;36133;42.522;27.456;2023-04-25T01:08:02;44.42;;;19.30;;
50249;SDS011;36133;42.522;27.456;2023-04-25T01:10:28;37.22;;;18.08;;
50249;SDS011;36133;42.522;27.456;2023-04-25T01:12:53;37.83;;;17.70;;
50249;SDS011;36133;42.522;27.456;2023-04-25T01:15:19;45.15;;;18.98;;
50249;SDS011;36133;42.522;27.456;2023-04-25T01:17:45;37.80;;;19.63;;
50249;SDS011;36133;42.522;27.456;2023-04-25T01:20:11;50.55;;;19.67;;
50249;SDS011;36133;42.522;27.456;2023-04-25T01:22:39;46.65;;;20.65;;
50249;SDS011;36133;42.522;27.456;2023-04-25T01:25:04;43.17;;;20.70;;
50249;SDS011;36133;42.522;27.456;2023-04-25T01:27:31;44.45;;;20.85;;
50249;SDS011;36133;42.522;27.456;2023-04-25T01:30:00;43.38;;;23.00;;
50249;SDS011;36133;42.522;27.456;2023-04-25T01:32:26;49.47;;;24.70;;
50249;SDS011;36133;42.522;27.456;2023-04-25T01:34:51;50.60;;;24.10;;
50249;SDS011;36133;42.522;27.456;2023-04-25T01:37:17;54.55;;;24.73;;
50249;SDS011;36133;42.522;27.456;2023-04-25T01:39:43;57.17;;;27.88;;
50249;SDS011;36133;42.522;27.456;2023-04-25T01:42:09;65.72;;;29.60;;
50249;SDS011;36133;42.522;27.456;2023-04-25T01:44:35;52.92;;;28.90;;
50249;SDS011;36133;42.522;27.456;2023-04-25T01:47:00;64.20;;;29.80;;
50249;SDS011;36133;42.522;27.456;2023-04-25T01:49:32;61.30;;;31.63;;
50249;SDS011;36133;42.522;27.456;2023-04-25T01:51:58;73.03;;;32.22;;
50249;SDS011;36133;42.522;27.456;2023-04-25T01:54:24;81.78;;;35.00;;
50249;SDS011;36133;42.522;27.456;2023-04-25T01:56:50;82.80;;;34.47;;
50249;SDS011;36133;42.522;27.456;2023-04-25T01:59:17;75.57;;;33.72;;
50249;SDS011;36133;42.522;27.456;2023-04-25T02:01:44;80.18;;;34.97;;
50249;SDS011;36133;42.522;27.456;2023-04-25T02:04:10;69.85;;;34.92;;
50249;SDS011;36133;42.522;27.456;2023-04-25T02:06:36;79.65;;;35.15;;
50249;SDS011;36133;42.522;27.456;2023-04-25T02:09:01;94.32;;;37.53;;
50249;SDS011;36133;42.522;27.456;2023-04-25T02:11:27;81.47;;;36.45;;
50249;SDS011;36133;42.522;27.456;2023-04-25T02:13:52;95.00;;;38.72;;
50249;SDS011;36133;42.522;27.456;2023-04-25T02:16:18;99.15;;;40.38;;
50249;SDS011;36133;42.522;27.456;2023-04-25T02:18:43;98.95;;;40.38;;
50249;SDS011;36133;42.522;27.456;2023-04-25T02:21:10;97.80;;;40.10;;
50249;SDS011;36133;42.522;27.456;2023-04-25T02:23:36;96.53;;;40.58;;
50249;SDS011;36133;42.522;27.456;2023-04-25T02:26:02;93.97;;;42.63;;
50249;SDS011;36133;42.522;27.456;2023-04-25T02:28:27;97.32;;;42.35;;
50249;SDS011;36133;42.522;27.456;2023-04-25T02:30:53;112.53;;;44.30;;
50249;SDS011;36133;42.522;27.456;2023-04-25T02:33:19;96.95;;;40.42;;
50249;SDS011;36133;42.522;27.456;2023-04-25T02:35:46;104.68;;;42.10;;
50249;SDS011;36133;42.522;27.456;2023-04-25T02:38:11;109.55;;;44.17;;
50249;SDS011;36133;42.522;27.456;2023-04-25T02:40:37;111.78;;;43.35;;
50249;SDS011;36133;42.522;27.456;2023-04-25T02:43:02;121.15;;;44.65;;
50249;SDS011;36133;42.522;27.456;2023-04-25T02:45:28;110.97;;;43.92;;
50249;SDS011;36133;42.522;27.456;2023-04-25T02:47:53;103.80;;;41.65;;
50249;SDS011;36133;42.522;27.456;2023-04-25T02:50:19;117.50;;;43.78;;
50249;SDS011;36133;42.522;27.456;2023-04-25T02:52:44;111.55;;;44.95;;
50249;SDS011;36133;42.522;27.456;2023-04-25T02:55:10;111.97;;;44.60;;
50249;SDS011;36133;42.522;27.456;2023-04-25T02:57:37;99.50;;;43.80;;
50249;SDS011;36133;42.522;27.456;2023-04-25T03:00:03;112.03;;;44.97;;
50249;SDS011;36133;42.522;27.456;2023-04-25T03:02:31;118.47;;;44.33;;
50249;SDS011;36133;42.522;27.456;2023-04-25T03:04:57;122.20;;;45.55;;
50249;SDS011;36133;42.522;27.456;2023-04-25T03:07:23;121.82;;;47.22;;
50249;SDS011;36133;42.522;27.456;2023-04-25T03:09:48;120.63;;;45.15;;
50249;SDS011;36133;42.522;27.456;2023-04-25T03:12:14;126.55;;;47.45;;
50249;SDS011;36133;42.522;27.456;2023-04-25T03:14:40;119.03;;;46.20;;
50249;SDS011;36133;42.522;27.456;2023-04-25T03:17:06;124.10;;;49.67;;
50249;SDS011;36133;42.522;27.456;2023-04-25T03:19:31;124.72;;;46.78;;
50249;SDS011;36133;42.522;27.456;2023-04-25T03:21:57;122.18;;;46.10;;
50249;SDS011;36133;42.522;27.456;2023-04-25T03:24:22;128.38;;;45.63;;
50249;SDS011;36133;42.522;27.456;2023-04-25T03:26:48;118.00;;;44.60;;
50249;SDS011;36133;42.522;27.456;2023-04-25T03:29:13;113.47;;;42.28;;
50249;SDS011;36133;42.522;27.456;2023-04-25T03:31:39;102.15;;;43.35;;
50249;SDS011;36133;42.522;27.456;2023-04-25T03:34:04;108.63;;;45.05;;
50249;SDS011;36133;42.522;27.456;2023-04-25T03:36:30;112.65;;;46.42;;
50249;SDS011;36133;42.522;27.456;2023-04-25T03:38:56;125.13;;;49.00;;
50249;SDS011;36133;42.522;27.456;2023-04-25T03:41:21;120.15;;;49.83;;
50249;SDS011;36133;42.522;27.456;2023-04-25T03:43:47;128.43;;;53.20;;
50249;SDS011;36133;42.522;27.456;2023-04-25T03:46:12;139.75;;;57.05;;
50249;SDS011;36133;42.522;27.456;2023-04-25T03:48:38;126.38;;;51.45;;
50249;SDS011;36133;42.522;27.456;2023-04-25T03:51:03;119.65;;;49.67;;
50249;SDS011;36133;42.522;27.456;2023-04-25T03:53:29;117.70;;;47.63;;
50249;SDS011;36133;42.522;27.456;2023-04-25T03:55:55;110.45;;;47.03;;
50249;SDS011;36133;42.522;27.456;2023-04-25T03:58:20;110.55;;;46.92;;
50249;SDS011;36133;42.522;27.456;2023-04-25T04:00:48;105.90;;;42.78;;
50249;SDS011;36133;42.522;27.456;2023-04-25T04:03:13;108.22;;;43.28;;
50249;SDS011;36133;42.522;27.456;2023-04-25T04:05:39;97.25;;;42.25;;
50249;SDS011;36133;42.522;27.456;2023-04-25T04:08:05;94.07;;;40.55;;
50249;SDS011;36133;42.522;27.456;2023-04-25T04:10:31;102.97;;;44.67;;
50249;SDS011;36133;42.522;27.456;2023-04-25T04:12:57;100.75;;;41.75;;
50249;SDS011;36133;42.522;27.456;2023-04-25T04:15:23;94.93;;;40.28;;
50249;SDS011;36133;42.522;27.456;2023-04-25T04:17:48;104.88;;;48.03;;
50249;SDS011;36133;42.522;27.456;2023-04-25T04:20:14;105.25;;;53.15;;
50249;SDS011;36133;42.522;27.456;2023-04-25T04:22:39;87.15;;;43.20;;
50249;SDS011;36133;42.522;27.456;2023-04-25T04:25:05;91.72;;;45.83;;
50249;SDS011;36133;42.522;27.456;2023-04-25T04:27:31;103.32;;;44.67;;
50249;SDS011;36133;42.522;27.456;2023-04-25T04:29:57;88.47;;;42.45;;
50249;SDS011;36133;42.522;27.456;2023-04-25T04:32:23;74.22;;;37.83;;
50249;SDS011;36133;42.522;27.456;2023-04-25T04:34:49;69.50;;;34.03;;
50249;SDS011;36133;42.522;27.456;2023-04-25T04:37:14;63.42;;;31.08;;
50249;SDS011;36133;42.522;27.456;2023-04-25T04:39:40;59.95;;;27.88;;
50249;SDS011;36133;42.522;27.456;2023-04-25T04:42:06;50.47;;;24.10;;
50249;SDS011;36133;42.522;27.456;2023-04-25T04:44:32;45.83;;;24.63;;
50249;SDS011;36133;42.522;27.456;2023-04-25T04:46:58;58.40;;;23.17;;
50249;SDS011;36133;42.522;27.456;2023-04-25T04:49:24;44.67;;;19.67;;
50249;SDS011;36133;42.522;27.456;2023-04-25T04:51:49;42.30;;;20.10;;
50249;SDS011;36133;42.522;27.456;2023-04-25T04:54:15;40.40;;;20.13;;
50249;SDS011;36133;42.522;27.456;2023-04-25T04:56:40;39.08;;;19.75;;
50249;SDS011;36133;42.522;27.456;2023-04-25T04:59:07;42.88;;;17.80;;
50249;SDS011;36133;42.522;27.456;2023-04-25T05:01:32;31.33;;;16.58;;
50249;SDS011;36133;42.522;27.456;2023-04-25T05:04:00;30.55;;;15.88;;
50249;SDS011;36133;42.522;27.456;2023-04-25T05:06:26;36.75;;;15.73;;
50249;SDS011;36133;42.522;27.456;2023-04-25T05:08:54;42.20;;;15.23;;
50249;SDS011;36133;42.522;27.456;2023-04-25T05:11:20;31.70;;;15.27;;
50249;SDS011;36133;42.522;27.456;2023-04-25T05:13:46;33.20;;;15.48;;
50249;SDS011;36133;42.522;27.456;2023-04-25T05:16:12;25.48;;;13.48;;
50249;SDS011;36133;42.522;27.456;2023-04-25T05:18:39;34.13;;;13.27;;
50249;SDS011;36133;42.522;27.456;2023-04-25T05:21:05;28.02;;;12.73;;
50249;SDS011;36133;42.522;27.456;2023-04-25T05:23:31;32.03;;;13.32;;
50249;SDS011;36133;42.522;27.456;2023-04-25T05:25:58;29.75;;;12.93;;
50249;SDS011;36133;42.522;27.456;2023-04-25T05:28:24;41.05;;;12.85;;
50249;SDS011;36133;42.522;27.456;2023-04-25T05:30:49;19.58;;;10.82;;
50249;SDS011;36133;42.522;27.456;2023-04-25T05:33:15;30.15;;;12.32;;
50249;SDS011;36133;42.522;27.456;2023-04-25T05:35:41;32.22;;;12.05;;
50249;SDS011;36133;42.522;27.456;2023-04-25T05:38:07;29.35;;;11.07;;
50249;SDS011;36133;42.522;27.456;2023-04-25T05:40:32;25.35;;;11.15;;
50249;SDS011;36133;42.522;27.456;2023-04-25T05:42:58;25.42;;;11.60;;
50249;SDS011;36133;42.522;27.456;2023-04-25T05:45:23;30.30;;;10.85;;
50249;SDS011;36133;42.522;27.456;2023-04-25T05:47:49;29.58;;;11.68;;
50249;SDS011;36133;42.522;27.456;2023-04-25T05:50:15;25.95;;;11.38;;
50249;SDS011;36133;42.522;27.456;2023-04-25T05:52:40;20.65;;;10.82;;
50249;SDS011;36133;42.522;27.456;2023-04-25T05:55:06;30.92;;;12.05;;
50249;SDS011;36133;42.522;27.456;2023-04-25T05:57:32;25.63;;;10.95;;
50249;SDS011;36133;42.522;27.456;2023-04-25T05:59:57;33.78;;;11.73;;
50249;SDS011;36133;42.522;27.456;2023-04-25T06:02:23;21.95;;;10.40;;
50249;SDS011;36133;42.522;27.456;2023-04-25T06:04:51;28.55;;;11.80;;
50249;SDS011;36133;42.522;27.456;2023-04-25T06:07:17;26.55;;;13.15;;
50249;SDS011;36133;42.522;27.456;2023-04-25T06:09:44;40.75;;;12.77;;
50249;SDS011;36133;42.522;27.456;2023-04-25T06:12:09;21.02;;;11.07;;
50249;SDS011;36133;42.522;27.456;2023-04-25T06:14:36;23.27;;;11.40;;
50249;SDS011;36133;42.522;27.456;2023-04-25T06:17:02;19.98;;;10.50;;
50249;SDS011;36133;42.522;27.456;2023-04-25T06:19:35;23.20;;;11.02;;
50249;SDS011;36133;42.522;27.456;2023-04-25T06:22:03;22.40;;;11.27;;
50249;SDS011;36133;42.522;27.456;2023-04-25T06:24:29;23.83;;;10.68;;
50249;SDS011;36133;42.522;27.456;2023-04-25T06:26:55;18.13;;;10.40;;
50249;SDS011;36133;42.522;27.456;2023-04-25T06:29:22;19.15;;;9.98;;
50249;SDS011;36133;42.522;27.456;2023-04-25T06:31:48;23.85;;;10.00;;
50249;SDS011;36133;42.522;27.456;2023-04-25T06:34:17;35.75;;;17.50;;
50249;SDS011;36133;42.522;27.456;2023-04-25T06:36:48;46.90;;;21.25;;
50249;SDS011;36133;42.522;27.456;2023-04-25T06:39:16;40.15;;;19.95;;
50249;SDS011;36133;42.522;27.456;2023-04-25T06:41:42;48.13;;;23.73;;
50249;SDS011;36133;42.522;27.456;2023-04-25T06:44:08;42.08;;;22.20;;
50249;SDS011;36133;42.522;27.456;2023-04-25T06:46:33;36.40;;;20.95;;
50249;SDS011;36133;42.522;27.456;2023-04-25T06:49:02;36.92;;;21.15;;
50249;SDS011;36133;42.522;27.456;2023-04-25T06:51:28;37.15;;;20.85;;
50249;SDS011;36133;42.522;27.456;2023-04-25T06:53:55;46.60;;;22.63;;
50249;SDS011;36133;42.522;27.456;2023-04-25T06:56:21;35.90;;;21.30;;
50249;SDS011;36133;42.522;27.456;2023-04-25T06:58:46;35.33;;;21.13;;
50249;SDS011;36133;42.522;27.456;2023-04-25T07:01:12;28.50;;;18.25;;
50249;SDS011;36133;42.522;27.456;2023-04-25T07:03:38;38.20;;;20.17;;
50249;SDS011;36133;42.522;27.456;2023-04-25T07:06:05;32.53;;;19.45;;
50249;SDS011;36133;42.522;27.456;2023-04-25T07:08:31;34.67;;;19.90;;
50249;SDS011;36133;42.522;27.456;2023-04-25T07:10:57;34.33;;;18.15;;
50249;SDS011;36133;42.522;27.456;2023-04-25T07:13:23;36.33;;;18.25;;
50249;SDS011;36133;42.522;27.456;2023-04-25T07:15:48;33.03;;;19.25;;
50249;SDS011;36133;42.522;27.456;2023-04-25T07:18:14;26.63;;;16.73;;
50249;SDS011;36133;42.522;27.456;2023-04-25T07:20:41;32.67;;;15.85;;
50249;SDS011;36133;42.522;27.456;2023-04-25T07:23:06;23.40;;;12.73;;
50249;SDS011;36133;42.522;27.456;2023-04-25T07:25:34;21.20;;;13.15;;
50249;SDS011;36133;42.522;27.456;2023-04-25T07:28:00;30.83;;;13.82;;
50249;SDS011;36133;42.522;27.456;2023-04-25T07:30:26;31.92;;;12.80;;
50249;SDS011;36133;42.522;27.456;2023-04-25T07:32:59;22.48;;;12.13;;
50249;SDS011;36133;42.522;27.456;2023-04-25T07:35:25;23.30;;;12.20;;
50249;SDS011;36133;42.522;27.456;2023-04-25T07:37:50;26.05;;;14.10;;
50249;SDS011;36133;42.522;27.456;2023-04-25T07:40:16;27.45;;;14.60;;
50249;SDS011;36133;42.522;27.456;2023-04-25T07:42:44;25.80;;;13.20;;
50249;SDS011;36133;42.522;27.456;2023-04-25T07:45:11;25.23;;;12.40;;
50249;SDS011;36133;42.522;27.456;2023-04-25T07:47:36;21.15;;;11.70;;
50249;SDS011;36133;42.522;27.456;2023-04-25T07:50:03;24.73;;;10.55;;
50249;SDS011;36133;42.522;27.456;2023-04-25T07:52:35;19.23;;;11.00;;
50249;SDS011;36133;42.522;27.456;2023-04-25T07:55:01;28.20;;;11.48;;
50249;SDS011;36133;42.522;27.456;2023-04-25T07:57:32;27.73;;;11.13;;
50249;SDS011;36133;42.522;27.456;2023-04-25T08:00:00;21.92;;;10.55;;
50249;SDS011;36133;42.522;27.456;2023-04-25T08:02:26;28.55;;;12.35;;
50249;SDS011;36133;42.522;27.456;2023-04-25T08:04:53;24.23;;;11.50;;
50249;SDS011;36133;42.522;27.456;2023-04-25T08:07:21;23.83;;;10.57;;
50249;SDS011;36133;42.522;27.456;2023-04-25T08:09:50;34.83;;;11.13;;
50249;SDS011;36133;42.522;27.456;2023-04-25T08:12:18;32.70;;;10.48;;
50249;SDS011;36133;42.522;27.456;2023-04-25T08:14:44;31.90;;;10.80;;
50249;SDS011;36133;42.522;27.456;2023-04-25T08:17:09;23.30;;;10.20;;
50249;SDS011;36133;42.522;27.456;2023-04-25T08:19:38;32.42;;;12.02;;
50249;SDS011;36133;42.522;27.456;2023-04-25T08:22:14;27.58;;;11.27;;
50249;SDS011;36133;42.522;27.456;2023-04-25T08:24:39;27.80;;;10.10;;
50249;SDS011;36133;42.522;27.456;2023-04-25T08:27:09;22.15;;;9.73;;
50249;SDS011;36133;42.522;27.456;2023-04-25T08:29:36;23.35;;;9.68;;
50249;SDS011;36133;42.522;27.456;2023-04-25T08:32:02;20.08;;;8.52;;
50249;SDS011;36133;42.522;27.456;2023-04-25T08:34:27;17.38;;;8.68;;
50249;SDS011;36133;42.522;27.456;2023-04-25T08:36:53;18.52;;;7.88;;
50249;SDS011;36133;42.522;27.456;2023-04-25T08:39:21;15.68;;;7.75;;
50249;SDS011;36133;42.522;27.456;2023-04-25T08:41:47;20.48;;;7.53;;
50249;SDS011;36133;42.522;27.456;2023-04-25T08:47:04;17.10;;;7.10;;
50249;SDS011;36133;42.522;27.456;2023-04-25T08:49:33;15.93;;;7.35;;
50249;SDS011;36133;42.522;27.456;2023-04-25T08:52:00;19.50;;;7.88;;
50249;SDS011;36133;42.522;27.456;2023-04-25T08:54:29;20.25;;;6.55;;
50249;SDS011;36133;42.522;27.456;2023-04-25T08:56:56;11.77;;;6.18;;
50249;SDS011;36133;42.522;27.456;2023-04-25T08:59:30;18.42;;;7.07;;
50249;SDS011;36133;42.522;27.456;2023-04-25T09:02:03;11.75;;;7.03;;
50249;SDS011;36133;42.522;27.456;2023-04-25T09:04:30;18.75;;;6.10;;
50249;SDS011;36133;42.522;27.456;2023-04-25T09:07:00;13.00;;;5.93;;
50249;SDS011;36133;42.522;27.456;2023-04-25T09:09:26;12.85;;;6.28;;
50249;SDS011;36133;42.522;27.456;2023-04-25T09:11:54;7.38;;;5.32;;
50249;SDS011;36133;42.522;27.456;2023-04-25T09:14:21;14.57;;;6.03;;
50249;SDS011;36133;42.522;27.456;2023-04-25T09:19:27;14.07;;;6.10;;
50249;SDS011;36133;42.522;27.456;2023-04-25T09:22:04;11.27;;;5.28;;
50249;SDS011;36133;42.522;27.456;2023-04-25T09:24:34;17.42;;;5.72;;
50249;SDS011;36133;42.522;27.456;2023-04-25T09:27:05;8.32;;;5.68;;
50249;SDS011;36133;42.522;27.456;2023-04-25T09:29:59;15.82;;;5.70;;
50249;SDS011;36133;42.522;27.456;2023-04-25T09:32:25;13.73;;;8.18;;
50249;SDS011;36133;42.522;27.456;2023-04-25T09:35:00;19.65;;;10.35;;
50249;SDS011;36133;42.522;27.456;2023-04-25T09:37:43;23.60;;;9.63;;
50249;SDS011;36133;42.522;27.456;2023-04-25T09:40:11;19.83;;;9.18;;
50249;SDS011;36133;42.522;27.456;2023-04-25T09:42:41;24.98;;;8.98;;
50249;SDS011;36133;42.522;27.456;2023-04-25T09:45:24;13.70;;;7.20;;
50249;SDS011;36133;42.522;27.456;2023-04-25T09:48:19;15.40;;;8.50;;
50249;SDS011;36133;42.522;27.456;2023-04-25T09:53:45;21.40;;;8.52;;
50249;SDS011;36133;42.522;27.456;2023-04-25T09:59:03;13.70;;;7.85;;
50249;SDS011;36133;42.522;27.456;2023-04-25T10:01:36;15.40;;;8.80;;
50249;SDS011;36133;42.522;27.456;2023-04-25T10:04:11;21.52;;;10.52;;
50249;SDS011;36133;42.522;27.456;2023-04-25T10:06:37;19.23;;;10.77;;
50249;SDS011;36133;42.522;27.456;2023-04-25T10:09:08;18.33;;;10.68;;
50249;SDS011;36133;42.522;27.456;2023-04-25T10:11:33;20.90;;;10.77;;
50249;SDS011;36133;42.522;27.456;2023-04-25T10:14:02;16.10;;;9.48;;
50249;SDS011;36133;42.522;27.456;2023-04-25T10:16:28;14.60;;;9.38;;
50249;SDS011;36133;42.522;27.456;2023-04-25T10:18:54;19.90;;;9.60;;
50249;SDS011;36133;42.522;27.456;2023-04-25T10:21:25;17.25;;;9.23;;
50249;SDS011;36133;42.522;27.456;2023-04-25T10:23:57;15.25;;;9.43;;
50249;SDS011;36133;42.522;27.456;2023-04-25T10:26:35;16.20;;;9.48;;
50249;SDS011;36133;42.522;27.456;2023-04-25T10:29:10;17.48;;;9.60;;
50249;SDS011;36133;42.522;27.456;2023-04-25T10:31:44;16.48;;;8.50;;
50249;SDS011;36133;42.522;27.456;2023-04-25T10:34:13;14.13;;;7.55;;
50249;SDS011;36133;42.522;27.456;2023-04-25T10:36:41;12.98;;;7.97;;
50249;SDS011;36133;42.522;27.456;2023-04-25T10:39:07;10.55;;;6.72;;
50249;SDS011;36133;42.522;27.456;2023-04-25T10:41:53;11.20;;;7.55;;
50249;SDS011;36133;42.522;27.456;2023-04-25T10:44:27;12.98;;;7.10;;
50249;SDS011;36133;42.522;27.456;2023-04-25T10:47:05;13.45;;;7.22;;
50249;SDS011;36133;42.522;27.456;2023-04-25T10:54:57;11.70;;;6.85;;
50249;SDS011;36133;42.522;27.456;2023-04-25T10:57:32;15.05;;;7.22;;
50249;SDS011;36133;42.522;27.456;2023-04-25T11:00:13;14.68;;;7.57;;
50249;SDS011;36133;42.522;27.456;2023-04-25T11:05:11;21.75;;;7.72;;
50249;SDS011;36133;42.522;27.456;2023-04-25T11:08:03;22.05;;;8.48;;
50249;SDS011;36133;42.522;27.456;2023-04-25T11:10:37;11.32;;;7.95;;
50249;SDS011;36133;42.522;27.456;2023-04-25T11:13:40;10.15;;;7.50;;
50249;SDS011;36133;42.522;27.456;2023-04-25T11:16:09;12.02;;;7.22;;
50249;SDS011;36133;42.522;27.456;2023-04-25T11:18:41;16.77;;;7.10;;
50249;SDS011;36133;42.522;27.456;2023-04-25T11:21:08;19.70;;;6.93;;
50249;SDS011;36133;42.522;27.456;2023-04-25T11:23:35;12.38;;;6.72;;
50249;SDS011;36133;42.522;27.456;2023-04-25T11:26:02;15.45;;;6.95;;
50249;SDS011;36133;42.522;27.456;2023-04-25T11:28:29;11.88;;;6.63;;
50249;SDS011;36133;42.522;27.456;2023-04-25T11:30:55;15.82;;;7.20;;
50249;SDS011;36133;42.522;27.456;2023-04-25T11:33:25;9.85;;;6.35;;
50249;SDS011;36133;42.522;27.456;2023-04-25T11:35:55;14.90;;;6.57;;
50249;SDS011;36133;42.522;27.456;2023-04-25T11:38:22;9.10;;;5.95;;
50249;SDS011;36133;42.522;27.456;2023-04-25T11:40:52;24.48;;;9.05;;
50249;SDS011;36133;42.522;27.456;2023-04-25T11:43:25;26.70;;;10.70;;
50249;SDS011;36133;42.522;27.456;2023-04-25T11:45:51;23.27;;;11.73;;
50249;SDS011;36133;42.522;27.456;2023-04-25T11:48:20;25.67;;;12.27;;
50249;SDS011;36133;42.522;27.456;2023-04-25T11:50:48;16.65;;;9.63;;
50249;SDS011;36133;42.522;27.456;2023-04-25T11:53:17;19.65;;;8.13;;
50249;SDS011;36133;42.522;27.456;2023-04-25T11:55:46;17.23;;;6.78;;
50249;SDS011;36133;42.522;27.456;2023-04-25T11:58:15;14.45;;;7.38;;
50249;SDS011;36133;42.522;27.456;2023-04-25T12:00:41;14.68;;;7.57;;
50249;SDS011;36133;42.522;27.456;2023-04-25T12:03:23;14.50;;;8.65;;
50249;SDS011;36133;42.522;27.456;2023-04-25T12:06:04;16.48;;;8.43;;
50249;SDS011;36133;42.522;27.456;2023-04-25T12:08:33;15.20;;;9.00;;
50249;SDS011;36133;42.522;27.456;2023-04-25T12:10:59;13.68;;;7.22;;
50249;SDS011;36133;42.522;27.456;2023-04-25T12:13:27;12.88;;;7.88;;
50249;SDS011;36133;42.522;27.456;2023-04-25T12:15:56;13.85;;;7.80;;
50249;SDS011;36133;42.522;27.456;2023-04-25T12:18:25;16.27;;;9.90;;
50249;SDS011;36133;42.522;27.456;2023-04-25T12:21:00;12.93;;;10.05;;
50249;SDS011;36133;42.522;27.456;2023-04-25T12:23:26;17.65;;;11.40;;
50249;SDS011;36133;42.522;27.456;2023-04-25T12:25:55;19.23;;;11.05;;
50249;SDS011;36133;42.522;27.456;2023-04-25T12:28:22;17.10;;;11.10;;
50249;SDS011;36133;42.522;27.456;2023-04-25T12:30:52;19.83;;;11.00;;
50249;SDS011;36133;42.522;27.456;2023-04-25T12:33:20;21.95;;;12.88;;
50249;SDS011;36133;42.522;27.456;2023-04-25T12:35:56;20.65;;;12.57;;
50249;SDS011;36133;42.522;27.456;2023-04-25T12:40:59;18.60;;;10.93;;
50249;SDS011;36133;42.522;27.456;2023-04-25T12:43:25;15.80;;;10.90;;
50249;SDS011;36133;42.522;27.456;2023-04-25T12:45:51;16.00;;;11.55;;
50249;SDS011;36133;42.522;27.456;2023-04-25T12:48:21;22.25;;;10.48;;
50249;SDS011;36133;42.522;27.456;2023-04-25T12:50:58;14.95;;;8.93;;
50249;SDS011;36133;42.522;27.456;2023-04-25T12:53:23;13.63;;;9.75;;
50249;SDS011;36133;42.522;27.456;2023-04-25T12:55:49;12.35;;;7.40;;
50249;SDS011;36133;42.522;27.456;2023-04-25T12:58:16;15.75;;;7.75;;
50249;SDS011;36133;42.522;27.456;2023-04-25T13:00:45;18.08;;;7.22;;
50249;SDS011;36133;42.522;27.456;2023-04-25T13:03:11;21.33;;;7.38;;
50249;SDS011;36133;42.522;27.456;2023-04-25T13:05:37;27.77;;;8.25;;
50249;SDS011;36133;42.522;27.456;2023-04-25T13:08:03;20.75;;;7.88;;
50249;SDS011;36133;42.522;27.456;2023-04-25T13:10:29;21.15;;;7.80;;
50249;SDS011;36133;42.522;27.456;2023-04-25T13:13:03;20.38;;;8.35;;
50249;SDS011;36133;42.522;27.456;2023-04-25T13:15:31;17.88;;;7.72;;
50249;SDS011;36133;42.522;27.456;2023-04-25T13:17:57;20.95;;;8.18;;
50249;SDS011;36133;42.522;27.456;2023-04-25T13:20:23;22.60;;;8.40;;
50249;SDS011;36133;42.522;27.456;2023-04-25T13:22:48;25.35;;;9.35;;
50249;SDS011;36133;42.522;27.456;2023-04-25T13:25:14;27.40;;;9.82;;
50249;SDS011;36133;42.522;27.456;2023-04-25T13:27:41;26.50;;;8.98;;
50249;SDS011;36133;42.522;27.456;2023-04-25T13:30:09;26.92;;;9.07;;
50249;SDS011;36133;42.522;27.456;2023-04-25T13:32:35;27.65;;;9.45;;
50249;SDS011;36133;42.522;27.456;2023-04-25T13:35:02;18.95;;;8.63;;
50249;SDS011;36133;42.522;27.456;2023-04-25T13:37:29;24.63;;;9.10;;
50249;SDS011;36133;42.522;27.456;2023-04-25T13:39:58;20.45;;;10.98;;
50249;SDS011;36133;42.522;27.456;2023-04-25T13:42:25;22.92;;;10.70;;
50249;SDS011;36133;42.522;27.456;2023-04-25T13:44:51;24.70;;;10.68;;
50249;SDS011;36133;42.522;27.456;2023-04-25T13:47:16;18.48;;;10.85;;
50249;SDS011;36133;42.522;27.456;2023-04-25T13:49:45;16.83;;;10.27;;
50249;SDS011;36133;42.522;27.456;2023-04-25T13:52:11;14.18;;;10.15;;
50249;SDS011;36133;42.522;27.456;2023-04-25T13:54:42;17.92;;;10.75;;
50249;SDS011;36133;42.522;27.456;2023-04-25T13:57:12;22.65;;;11.45;;
50249;SDS011;36133;42.522;27.456;2023-04-25T13:59:45;21.42;;;11.90;;
50249;SDS011;36133;42.522;27.456;2023-04-25T14:02:16;18.30;;;11.52;;
50249;SDS011;36133;42.522;27.456;2023-04-25T14:04:41;21.27;;;12.35;;
50249;SDS011;36133;42.522;27.456;2023-04-25T14:07:07;22.40;;;12.40;;
50249;SDS011;36133;42.522;27.456;2023-04-25T14:09:33;23.67;;;13.13;;
50249;SDS011;36133;42.522;27.456;2023-04-25T14:12:02;30.45;;;13.30;;
50249;SDS011;36133;42.522;27.456;2023-04-25T14:14:28;18.52;;;12.35;;
50249;SDS011;36133;42.522;27.456;2023-04-25T14:20:00;20.05;;;12.57;;
50249;SDS011;36133;42.522;27.456;2023-04-25T14:22:25;21.58;;;12.93;;
50249;SDS011;36133;42.522;27.456;2023-04-25T14:24:54;23.25;;;12.27;;
50249;SDS011;36133;42.522;27.456;2023-04-25T14:27:20;25.88;;;13.15;;
50249;SDS011;36133;42.522;27.456;2023-04-25T14:29:48;38.33;;;13.23;;
50249;SDS011;36133;42.522;27.456;2023-04-25T14:32:17;21.58;;;13.13;;
50249;SDS011;36133;42.522;27.456;2023-04-25T14:34:46;24.05;;;12.10;;
50249;SDS011;36133;42.522;27.456;2023-04-25T14:37:11;19.67;;;10.90;;
50249;SDS011;36133;42.522;27.456;2023-04-25T14:39:40;15.85;;;10.75;;